createdAt,value
2022-09-02T00:02:25.118Z,1.40
2022-09-02T00:04:52.241Z,2.13
2022-09-02T00:07:19.405Z,1.67
2022-09-02T00:09:46.633Z,1.98
2022-09-02T00:12:14.014Z,2.80
2022-09-02T00:14:41.176Z,2.90
2022-09-02T00:17:08.526Z,1.90
2022-09-02T00:19:36.225Z,1.77
2022-09-02T00:22:03.928Z,1.98
2022-09-02T00:24:32.554Z,1.85
2022-09-02T00:26:59.775Z,2.90
2022-09-02T00:29:28.741Z,2.05
2022-09-02T00:31:56.363Z,2.53
2022-09-02T00:34:24.474Z,3.45
2022-09-02T00:36:52.088Z,2.72
2022-09-02T00:39:19.889Z,2.78
2022-09-02T00:41:47.139Z,2.88
2022-09-02T00:44:18.457Z,1.95
2022-09-02T00:46:46.957Z,2.20
2022-09-02T00:49:25.456Z,2.45
2022-09-02T00:51:58.708Z,2.60
2022-09-02T00:54:27.881Z,2.65
2022-09-02T00:56:56.258Z,2.05
2022-09-02T00:59:51.843Z,3.08
2022-09-02T01:02:24.139Z,2.50
2022-09-02T01:04:55.637Z,2.72
2022-09-02T01:07:25.965Z,3.13
2022-09-02T01:09:58.245Z,3.00
2022-09-02T01:12:27.921Z,2.20
2022-09-02T01:14:55.482Z,3.10
2022-09-02T01:17:22.649Z,2.45
2022-09-02T01:19:59.530Z,2.38
2022-09-02T01:22:30.814Z,2.90
2022-09-02T01:25:05.471Z,2.05
2022-09-02T01:27:32.548Z,2.40
2022-09-02T01:30:00.857Z,2.35
2022-09-02T01:32:30.457Z,2.15
2022-09-02T01:34:58.088Z,2.78
2022-09-02T01:37:25.851Z,2.38
2022-09-02T01:39:53.763Z,2.25
2022-09-02T01:42:21.946Z,2.65
2022-09-02T01:44:49.225Z,2.60
2022-09-02T01:47:24.299Z,2.78
2022-09-02T01:49:52.423Z,3.08
2022-09-02T01:52:23.504Z,3.10
2022-09-02T01:54:51.884Z,3.25
2022-09-02T01:57:19.649Z,3.13
2022-09-02T01:59:46.894Z,3.50
2022-09-02T02:02:19.369Z,3.05
2022-09-02T02:04:48.641Z,3.40
2022-09-02T02:07:20.207Z,4.07
2022-09-02T02:09:48.518Z,3.28
2022-09-02T02:12:18.154Z,3.30
2022-09-02T02:14:45.567Z,3.47
2022-09-02T02:17:13.355Z,2.60
2022-09-02T02:19:41.921Z,3.28
2022-09-02T02:22:09.201Z,2.90
2022-09-02T02:24:37.080Z,3.95
2022-09-02T02:27:04.947Z,3.17
2022-09-02T02:29:32.405Z,2.75
2022-09-02T02:31:59.949Z,3.38
2022-09-02T02:34:27.321Z,2.88
2022-09-02T02:36:54.462Z,3.03
2022-09-02T02:39:22.256Z,3.25
2022-09-02T02:41:49.404Z,3.45
2022-09-02T02:44:17.100Z,3.47
2022-09-02T02:46:44.715Z,3.28
2022-09-02T02:49:12.901Z,3.20
2022-09-02T02:51:41.240Z,3.60
2022-09-02T02:54:08.674Z,2.42
2022-09-02T02:56:36.670Z,2.83
2022-09-02T02:59:04.295Z,3.08
2022-09-02T03:01:34.177Z,3.15
2022-09-02T03:04:01.623Z,3.97
2022-09-02T03:06:30.248Z,3.33
2022-09-02T03:08:57.923Z,2.60
2022-09-02T03:11:27.908Z,2.80
2022-09-02T03:13:56.387Z,3.75
2022-09-02T03:16:23.736Z,3.30
2022-09-02T03:18:51.934Z,3.60
2022-09-02T03:21:20.269Z,3.15
2022-09-02T03:23:49.082Z,3.78
2022-09-02T03:26:21.044Z,3.63
2022-09-02T03:28:49.446Z,3.72
2022-09-02T03:31:24.101Z,3.58
2022-09-02T03:33:53.147Z,3.63
2022-09-02T03:36:34.099Z,3.30
2022-09-02T03:39:02.651Z,3.35
2022-09-02T03:41:30.125Z,3.80
2022-09-02T03:43:59.587Z,3.63
2022-09-02T03:46:28.849Z,3.30
2022-09-02T03:48:56.342Z,4.07
2022-09-02T03:51:25.295Z,3.45
2022-09-02T03:53:52.837Z,3.65
2022-09-02T03:56:22.170Z,3.67
2022-09-02T03:58:52.185Z,3.63
2022-09-02T04:01:27.840Z,3.15
2022-09-02T04:03:56.786Z,3.30
2022-09-02T04:06:26.287Z,3.63
2022-09-02T04:09:01.783Z,4.53
2022-09-02T04:11:29.195Z,3.80
2022-09-02T04:13:56.682Z,3.85
2022-09-02T04:16:29.951Z,4.28
2022-09-02T04:19:06.023Z,3.92
2022-09-02T04:21:37.488Z,4.25
2022-09-02T04:24:09.360Z,4.25
2022-09-02T04:29:17.129Z,3.67
2022-09-02T04:31:47.334Z,4.28
2022-09-02T04:34:14.491Z,3.35
2022-09-02T04:36:43.514Z,4.47
2022-09-02T04:39:13.709Z,4.30
2022-09-02T04:41:42.616Z,4.13
2022-09-02T04:44:12.507Z,3.78
2022-09-02T04:46:42.978Z,4.50
2022-09-02T04:49:14.799Z,4.32
2022-09-02T04:51:44.098Z,3.38
2022-09-02T04:54:11.526Z,4.78
2022-09-02T04:56:42.189Z,4.18
2022-09-02T04:59:10.487Z,3.75
2022-09-02T05:01:43.279Z,3.88
2022-09-02T05:04:19.567Z,4.32
2022-09-02T05:06:50.800Z,4.47
2022-09-02T05:09:22.078Z,3.80
2022-09-02T05:12:04.235Z,4.40
2022-09-02T05:14:41.782Z,4.57
2022-09-02T05:17:14.305Z,4.13
2022-09-02T05:19:44.436Z,4.63
2022-09-02T05:22:11.941Z,3.45
2022-09-02T05:24:51.101Z,4.28
2022-09-02T05:27:20.502Z,4.68
2022-09-02T05:29:50.099Z,5.68
2022-09-02T05:32:20.930Z,5.25
2022-09-02T05:34:50.321Z,5.18
2022-09-02T05:37:18.164Z,5.00
2022-09-02T05:39:45.529Z,4.90
2022-09-02T05:42:12.969Z,5.00
2022-09-02T05:44:42.355Z,4.88
2022-09-02T05:47:09.605Z,5.25
2022-09-02T05:49:38.519Z,4.95
2022-09-02T05:52:11.936Z,5.35
2022-09-02T05:54:49.444Z,5.45
2022-09-02T05:57:19.435Z,6.18
2022-09-02T06:00:07.365Z,5.93
2022-09-02T06:02:50.872Z,6.05
2022-09-02T06:05:25.225Z,9.80
2022-09-02T06:08:00.626Z,5.97
2022-09-02T06:10:28.043Z,5.65
2022-09-02T06:12:56.919Z,6.07
2022-09-02T06:15:31.072Z,5.55
2022-09-02T06:18:00.926Z,5.68
2022-09-02T06:20:32.674Z,5.20
2022-09-02T06:23:01.586Z,5.43
2022-09-02T06:25:28.784Z,5.70
2022-09-02T06:27:56.379Z,6.50
2022-09-02T06:30:24.536Z,6.10
2022-09-02T06:32:53.211Z,6.85
2022-09-02T06:35:22.952Z,6.75
2022-09-02T06:37:51.914Z,5.30
2022-09-02T06:40:21.012Z,5.35
2022-09-02T06:42:56.413Z,5.70
2022-09-02T06:45:41.741Z,5.13
2022-09-02T06:48:11.330Z,5.35
2022-09-02T06:50:46.078Z,5.95
2022-09-02T06:53:14.261Z,5.03
2022-09-02T06:55:45.063Z,5.10
2022-09-02T06:58:13.874Z,5.18
2022-09-02T07:00:42.825Z,4.38
2022-09-02T07:03:30.992Z,4.57
2022-09-02T07:06:11.082Z,5.60
2022-09-02T07:08:44.593Z,5.68
2022-09-02T07:11:22.876Z,8.85
2022-09-02T07:13:52.225Z,6.15
2022-09-02T07:16:27.012Z,5.55
2022-09-02T07:21:26.631Z,4.35
2022-09-02T07:23:54.063Z,4.50
2022-09-02T07:26:23.222Z,4.90
2022-09-02T07:28:54.200Z,3.75
2022-09-02T07:31:25.204Z,3.38
2022-09-02T07:33:56.923Z,3.13
2022-09-02T07:36:26.935Z,4.20
2022-09-02T07:38:58.034Z,3.28
2022-09-02T07:41:25.629Z,3.80
2022-09-02T07:43:59.775Z,2.90
2022-09-02T07:46:32.432Z,2.33
2022-09-02T07:49:05.119Z,2.97
2022-09-02T07:51:40.135Z,2.40
2022-09-02T07:54:10.709Z,2.65
2022-09-02T07:56:38.141Z,2.47
2022-09-02T07:59:06.819Z,2.25
2022-09-02T08:01:35.958Z,2.78
2022-09-02T08:04:06.474Z,2.05
2022-09-02T08:06:37.479Z,2.47
2022-09-02T08:09:12.284Z,2.00
2022-09-02T08:11:45.314Z,2.70
2022-09-02T08:14:25.174Z,2.72
2022-09-02T08:16:54.046Z,9.57
2022-09-02T08:19:23.046Z,3.03
2022-09-02T08:21:51.611Z,2.40
2022-09-02T08:24:18.847Z,2.47
2022-09-02T08:26:46.072Z,2.58
2022-09-02T08:29:13.363Z,2.15
2022-09-02T08:31:40.985Z,1.95
2022-09-02T08:34:08.343Z,2.33
2022-09-02T08:36:35.610Z,2.10
2022-09-02T08:39:05.049Z,1.92
2022-09-02T08:42:20.199Z,2.90
2022-09-02T08:44:49.820Z,2.15
2022-09-02T08:47:24.342Z,1.88
2022-09-02T08:49:59.612Z,1.75
2022-09-02T08:52:41.429Z,2.13
2022-09-02T08:55:20.219Z,2.33
2022-09-02T08:57:48.555Z,1.85
2022-09-02T09:00:16.132Z,6.30
2022-09-02T09:02:58.049Z,1.80
2022-09-02T09:05:50.654Z,1.85
2022-09-02T09:08:42.322Z,1.55
2022-09-02T09:11:34.151Z,1.63
2022-09-02T09:14:23.092Z,1.77
2022-09-02T09:17:00.571Z,0.93
2022-09-02T09:19:55.795Z,0.95
2022-09-02T09:22:32.162Z,1.48
2022-09-02T09:25:00.327Z,1.08
2022-09-02T09:27:28.384Z,0.90
2022-09-02T09:29:55.670Z,3.65
2022-09-02T09:32:33.604Z,1.70
2022-09-02T09:35:08.590Z,2.38
2022-09-02T09:37:40.129Z,1.77
2022-09-02T09:40:25.879Z,0.77
2022-09-02T09:43:06.113Z,1.00
2022-09-02T09:45:52.041Z,1.65
2022-09-02T09:48:27.679Z,0.98
2022-09-02T09:50:57.952Z,1.20
2022-09-02T09:53:33.141Z,0.98
2022-09-02T09:56:08.885Z,0.60
2022-09-02T09:58:48.476Z,0.80
2022-09-02T10:01:32.202Z,0.82
2022-09-02T10:04:42.383Z,0.55
2022-09-02T10:06:58.970Z,1.35
2022-09-02T10:09:35.549Z,0.55
2022-09-02T10:12:13.469Z,1.48
2022-09-02T10:14:46.776Z,1.58
2022-09-02T10:17:42.070Z,1.00
2022-09-02T10:20:48.613Z,1.27
2022-09-02T10:23:46.006Z,1.52
2022-09-02T10:26:20.311Z,1.25
2022-09-02T10:29:03.913Z,0.70
2022-09-02T10:32:11.471Z,1.30
2022-09-02T10:35:14.389Z,0.80
2022-09-02T10:37:50.285Z,0.50
2022-09-02T10:40:25.706Z,0.80
2022-09-02T10:43:06.081Z,0.60
2022-09-02T10:45:52.013Z,0.30
2022-09-02T10:48:37.821Z,0.28
2022-09-02T10:51:45.131Z,0.35
2022-09-02T10:54:37.602Z,0.30
2022-09-02T10:57:13.220Z,0.40
2022-09-02T11:00:04.524Z,0.82
2022-09-02T11:02:39.181Z,0.20
2022-09-02T11:05:16.032Z,0.25
2022-09-02T11:07:53.337Z,0.30
2022-09-02T11:10:29.912Z,0.82
2022-09-02T11:13:25.340Z,0.80
2022-09-02T11:16:15.362Z,1.13
2022-09-02T11:19:03.330Z,0.50
2022-09-02T11:21:50.779Z,0.68
2022-09-02T11:24:46.338Z,0.65
2022-09-02T11:27:42.455Z,0.60
2022-09-02T11:30:24.764Z,1.08
2022-09-02T11:33:15.498Z,0.52
2022-09-02T11:35:45.194Z,0.60
2022-09-02T11:38:37.653Z,0.98
2022-09-02T11:41:36.666Z,0.88
2022-09-02T11:44:40.845Z,1.23
2022-09-02T11:47:26.349Z,0.80
2022-09-02T11:50:18.683Z,0.63
2022-09-02T11:53:28.348Z,1.23
2022-09-02T11:56:02.547Z,0.80
2022-09-02T11:58:45.540Z,1.75
2022-09-02T12:01:15.588Z,1.13
2022-09-02T12:04:22.225Z,1.30
2022-09-02T12:06:35.394Z,1.00
2022-09-02T12:09:07.455Z,0.90
2022-09-02T12:11:55.261Z,1.13
2022-09-02T12:14:25.542Z,1.10
2022-09-02T12:17:06.944Z,0.80
2022-09-02T12:19:44.269Z,1.58
2022-09-02T12:22:15.943Z,1.27
2022-09-02T12:24:57.505Z,1.17
2022-09-02T12:27:38.659Z,1.55
2022-09-02T12:30:11.720Z,0.88
2022-09-02T12:32:49.489Z,1.10
2022-09-02T12:35:50.250Z,1.00
2022-09-02T12:38:25.783Z,1.17
2022-09-02T12:41:07.784Z,1.63
2022-09-02T12:44:14.248Z,1.48
2022-09-02T12:46:44.701Z,1.00
2022-09-02T12:49:39.475Z,1.05
2022-09-02T12:52:12.983Z,1.00
2022-09-02T12:54:49.367Z,0.70
2022-09-02T12:57:19.305Z,0.82
2022-09-02T12:59:48.691Z,1.08
2022-09-02T13:02:45.541Z,0.70
2022-09-02T13:05:36.857Z,1.02
2022-09-02T13:08:35.254Z,1.17
2022-09-02T13:11:15.259Z,1.27
2022-09-02T13:14:05.240Z,0.77
2022-09-02T13:17:25.717Z,0.65
2022-09-02T13:20:39.587Z,0.90
2022-09-02T13:23:44.052Z,0.88
2022-09-02T13:26:49.422Z,0.88
2022-09-02T13:29:46.816Z,0.98
2022-09-02T13:32:20.307Z,1.02
2022-09-02T13:37:29.681Z,0.70
2022-09-02T13:39:58.746Z,0.90
2022-09-02T13:42:33.004Z,0.63
2022-09-02T13:45:26.903Z,0.93
2022-09-02T13:48:03.210Z,0.52
2022-09-02T13:50:32.243Z,0.93
2022-09-02T13:53:53.991Z,0.50
2022-09-02T13:55:55.580Z,0.55
2022-09-02T13:58:34.409Z,0.90
2022-09-02T14:01:36.895Z,0.70
2022-09-02T14:04:15.836Z,0.40
2022-09-02T14:06:47.893Z,0.40
2022-09-02T14:09:34.941Z,0.60
2022-09-02T14:12:05.132Z,0.50
2022-09-02T14:14:33.012Z,1.30
2022-09-02T14:17:23.587Z,0.83
2022-09-02T14:19:52.854Z,0.60
2022-09-02T14:22:30.831Z,0.50
2022-09-02T14:24:58.177Z,0.75
2022-09-02T14:27:25.953Z,0.60
2022-09-02T14:29:58.358Z,0.38
2022-09-02T14:32:28.756Z,0.40
2022-09-02T14:35:22.289Z,0.60
2022-09-02T14:37:59.253Z,0.35
2022-09-02T14:40:34.938Z,0.60
2022-09-02T14:43:03.061Z,0.50
2022-09-02T14:45:35.425Z,0.30
2022-09-02T14:48:21.930Z,0.45
2022-09-02T14:50:50.615Z,0.70
2022-09-02T14:53:23.118Z,0.60
2022-09-02T14:55:56.249Z,0.50
2022-09-02T14:58:27.781Z,0.80
2022-09-02T15:01:04.350Z,0.55
2022-09-02T15:03:37.252Z,1.15
2022-09-02T15:06:05.335Z,0.57
2022-09-02T15:08:32.961Z,0.68
2022-09-02T15:11:01.370Z,0.50
2022-09-02T15:13:34.862Z,0.55
2022-09-02T15:16:03.239Z,0.50
2022-09-02T15:18:30.762Z,0.40
2022-09-02T15:21:01.366Z,0.40
2022-09-02T15:23:31.641Z,0.40
2022-09-02T15:26:04.547Z,0.65
2022-09-02T15:28:32.143Z,0.60
2022-09-02T15:31:01.522Z,0.40
2022-09-02T15:33:30.915Z,0.40
2022-09-02T15:36:14.113Z,0.52
2022-09-02T15:38:44.377Z,0.50
2022-09-02T15:41:17.990Z,0.68
2022-09-02T15:43:47.410Z,0.50
2022-09-02T15:46:28.472Z,0.50
2022-09-02T15:49:01.748Z,0.45
2022-09-02T15:51:29.887Z,0.47
2022-09-02T15:54:05.239Z,0.40
2022-09-02T15:56:37.544Z,0.50
2022-09-02T15:59:15.831Z,0.50
2022-09-02T16:01:46.370Z,0.30
2022-09-02T16:04:15.292Z,0.50
2022-09-02T16:06:51.376Z,0.40
2022-09-02T16:09:19.817Z,0.30
2022-09-02T16:11:51.854Z,0.55
2022-09-02T16:14:21.422Z,0.45
2022-09-02T16:16:51.001Z,1.15
2022-09-02T16:19:23.704Z,0.43
2022-09-02T16:21:53.648Z,0.30
2022-09-02T16:24:23.166Z,0.30
2022-09-02T16:26:53.873Z,0.63
2022-09-02T16:29:21.151Z,0.30
2022-09-02T16:32:07.885Z,0.43
2022-09-02T16:34:39.181Z,0.40
2022-09-02T16:37:06.373Z,0.70
2022-09-02T16:39:33.961Z,0.43
2022-09-02T16:42:04.385Z,0.60
2022-09-02T16:44:37.210Z,0.50
2022-09-02T16:47:06.753Z,0.45
2022-09-02T16:49:34.843Z,0.60
2022-09-02T16:52:03.759Z,0.35
2022-09-02T16:54:33.572Z,0.80
2022-09-02T16:57:05.146Z,1.52
2022-09-02T16:59:32.598Z,0.45
2022-09-02T17:02:00.036Z,0.60
2022-09-02T17:04:27.529Z,0.35
2022-09-02T17:06:57.095Z,0.50
2022-09-02T17:09:24.369Z,0.30
2022-09-02T17:11:52.642Z,0.50
2022-09-02T17:14:21.948Z,0.65
2022-09-02T17:16:53.788Z,1.63
2022-09-02T17:19:22.505Z,0.35
2022-09-02T17:21:52.763Z,0.70
2022-09-02T17:24:24.139Z,0.30
2022-09-02T17:26:56.075Z,0.50
2022-09-02T17:29:48.057Z,0.32
2022-09-02T17:32:14.268Z,0.52
2022-09-02T17:34:44.101Z,0.47
2022-09-02T17:37:11.490Z,0.55
2022-09-02T17:39:38.870Z,0.57
2022-09-02T17:42:07.187Z,0.52
2022-09-02T17:44:39.852Z,0.80
2022-09-02T17:47:15.486Z,0.60
2022-09-02T17:49:44.493Z,0.50
2022-09-02T17:52:21.631Z,0.68
2022-09-02T17:54:52.428Z,0.57
2022-09-02T17:57:46.397Z,0.60
2022-09-02T18:00:17.510Z,1.00
2022-09-02T18:03:24.361Z,1.35
2022-09-02T18:06:14.455Z,1.83
2022-09-02T18:09:02.322Z,1.88
2022-09-02T18:11:33.227Z,1.85
2022-09-02T18:14:52.017Z,2.10
2022-09-02T18:17:36.653Z,1.48
2022-09-02T18:20:36.163Z,1.40
2022-09-02T18:23:21.919Z,1.90
2022-09-02T18:26:38.781Z,1.70
2022-09-02T18:29:22.588Z,2.53
2022-09-02T18:32:07.596Z,2.55
2022-09-02T18:34:44.961Z,2.70
2022-09-02T18:37:40.521Z,2.72
2022-09-02T18:40:22.480Z,3.03
2022-09-02T18:43:15.807Z,3.65
2022-09-02T18:45:53.613Z,3.40
2022-09-02T18:48:37.660Z,3.13
2022-09-02T18:51:24.248Z,3.85
2022-09-02T18:54:01.285Z,2.63
2022-09-02T18:56:36.422Z,2.63
2022-09-02T18:59:12.136Z,2.55
2022-09-02T19:01:56.440Z,3.17
2022-09-02T19:04:29.443Z,3.20
2022-09-02T19:07:17.716Z,3.47
2022-09-02T19:09:45.139Z,3.40
2022-09-02T19:12:13.063Z,3.00
2022-09-02T19:14:41.175Z,2.97
2022-09-02T19:17:09.674Z,1.98
2022-09-02T19:19:36.984Z,3.22
2022-09-02T19:22:11.002Z,2.72
2022-09-02T19:24:50.801Z,2.05
2022-09-02T19:27:22.356Z,2.30
2022-09-02T19:30:00.351Z,2.67
2022-09-02T19:32:33.940Z,2.05
2022-09-02T19:35:10.435Z,3.17
2022-09-02T19:37:44.658Z,1.98
2022-09-02T19:40:18.416Z,2.78
2022-09-02T19:42:48.552Z,2.35
2022-09-02T19:45:16.757Z,2.53
2022-09-02T19:48:05.994Z,2.95
2022-09-02T19:50:37.405Z,2.83
2022-09-02T19:53:04.609Z,3.15
2022-09-02T19:55:33.975Z,3.00
2022-09-02T19:58:01.299Z,3.85
2022-09-02T20:00:28.997Z,3.30
2022-09-02T20:02:56.302Z,4.32
2022-09-02T20:05:25.414Z,3.97
2022-09-02T20:07:55.035Z,3.20
2022-09-02T20:10:29.859Z,4.05
2022-09-02T20:12:59.173Z,3.75
2022-09-02T20:15:26.423Z,3.45
2022-09-02T20:17:53.764Z,3.33
2022-09-02T20:20:23.965Z,3.75
2022-09-02T20:22:55.310Z,3.13
2022-09-02T20:25:51.886Z,3.92
2022-09-02T20:28:59.114Z,3.97
2022-09-02T20:32:04.218Z,4.10
2022-09-02T20:34:46.354Z,4.07
2022-09-02T20:37:22.836Z,4.43
2022-09-02T20:40:17.631Z,6.28
2022-09-02T20:43:27.283Z,5.60
2022-09-02T20:46:04.925Z,4.18
2022-09-02T20:49:13.876Z,5.03
2022-09-02T20:52:12.139Z,2.97
2022-09-02T20:55:38.820Z,5.10
2022-09-02T20:58:22.350Z,5.35
2022-09-02T21:01:08.530Z,5.25
2022-09-02T21:03:50.305Z,5.47
2022-09-02T21:06:22.906Z,5.88
2022-09-02T21:09:17.390Z,5.90
2022-09-02T21:12:03.153Z,6.97
2022-09-02T21:14:42.685Z,6.25
2022-09-02T21:17:35.915Z,7.28
2022-09-02T21:20:21.140Z,7.03
2022-09-02T21:22:55.139Z,6.25
2022-09-02T21:26:03.823Z,7.03
2022-09-02T21:29:05.115Z,5.18
2022-09-02T21:32:24.505Z,5.97
2022-09-02T21:35:20.214Z,6.22
2022-09-02T21:37:54.176Z,6.43
2022-09-02T21:40:30.189Z,6.97
2022-09-02T21:43:16.568Z,6.50
2022-09-02T21:45:56.835Z,7.03
2022-09-02T21:48:36.867Z,6.68
2022-09-02T21:51:40.605Z,6.57
2022-09-02T21:54:36.931Z,6.40
2022-09-02T21:58:07.619Z,7.05
2022-09-02T22:00:37.095Z,5.85
2022-09-02T22:03:23.284Z,5.97
2022-09-02T22:06:02.132Z,5.22
2022-09-02T22:08:58.570Z,4.40
2022-09-02T22:11:37.290Z,5.40
2022-09-02T22:14:33.983Z,6.45
2022-09-02T22:17:45.843Z,5.05
2022-09-02T22:20:27.667Z,6.10
2022-09-02T22:23:03.497Z,4.80
2022-09-02T22:25:33.875Z,5.85
2022-09-02T22:28:13.109Z,5.95
2022-09-02T22:30:48.259Z,5.25
2022-09-02T22:33:24.073Z,7.30
2022-09-02T22:36:00.735Z,6.38
2022-09-02T22:38:41.813Z,6.57
2022-09-02T22:41:29.868Z,5.80
2022-09-02T22:45:03.362Z,4.45
2022-09-02T22:47:51.929Z,3.88
2022-09-02T22:50:45.006Z,4.20
2022-09-02T22:53:12.949Z,5.55
2022-09-02T22:55:59.806Z,6.50
2022-09-02T22:58:33.430Z,6.80
2022-09-02T23:03:46.439Z,8.35
2022-09-02T23:06:26.814Z,10.52
2022-09-02T23:08:57.133Z,11.38
2022-09-02T23:11:28.099Z,12.48
2022-09-02T23:14:10.557Z,12.98
2022-09-02T23:17:23.025Z,13.20
2022-09-02T23:20:21.247Z,13.30
2022-09-02T23:23:26.393Z,12.35
2022-09-02T23:26:36.232Z,13.68
2022-09-02T23:29:28.749Z,10.13
2022-09-02T23:32:20.912Z,11.98
2022-09-02T23:35:17.403Z,11.45
2022-09-02T23:38:02.867Z,14.73
2022-09-02T23:40:46.225Z,13.35
2022-09-02T23:43:18.413Z,14.70
2022-09-02T23:45:47.071Z,13.05
2022-09-02T23:48:49.839Z,14.52
2022-09-02T23:51:32.399Z,14.13
2022-09-02T23:54:17.469Z,14.23
2022-09-02T23:57:18.089Z,13.80
